sensor_id;sensor_type;location;lat;lon;timestamp;P1;durP1;ratioP1;P2;durP2;ratioP2
12334;SDS011;6233;51.560;9.986;2023-04-25T00:01:43;6.53;;;4.10;;
12334;SDS011;6233;51.560;9.986;2023-04-25T00:04:45;6.93;;;4.03;;
12334;SDS011;6233;51.560;9.986;2023-04-25T00:07:47;6.37;;;4.20;;
12334;SDS011;6233;51.560;9.986;2023-04-25T00:10:49;7.30;;;4.23;;
12334;SDS011;6233;51.560;9.986;2023-04-25T00:13:51;14.20;;;4.70;;
12334;SDS011;6233;51.560;9.986;2023-04-25T00:16:52;5.87;;;4.30;;
12334;SDS011;6233;51.560;9.986;2023-04-25T00:19:55;9.20;;;4.53;;
12334;SDS011;6233;51.560;9.986;2023-04-25T00:22:57;9.03;;;5.03;;
12334;SDS011;6233;51.560;9.986;2023-04-25T00:25:58;8.47;;;4.70;;
12334;SDS011;6233;51.560;9.986;2023-04-25T00:29:00;7.70;;;5.20;;
12334;SDS011;6233;51.560;9.986;2023-04-25T00:32:02;8.37;;;4.73;;
12334;SDS011;6233;51.560;9.986;2023-04-25T00:35:04;10.53;;;5.23;;
12334;SDS011;6233;51.560;9.986;2023-04-25T00:38:06;9.17;;;5.30;;
12334;SDS011;6233;51.560;9.986;2023-04-25T00:41:08;7.57;;;4.97;;
12334;SDS011;6233;51.560;9.986;2023-04-25T00:44:10;7.50;;;5.37;;
12334;SDS011;6233;51.560;9.986;2023-04-25T00:47:13;10.90;;;5.33;;
12334;SDS011;6233;51.560;9.986;2023-04-25T00:50:15;8.10;;;4.93;;
12334;SDS011;6233;51.560;9.986;2023-04-25T00:53:16;9.63;;;6.13;;
12334;SDS011;6233;51.560;9.986;2023-04-25T00:56:18;9.50;;;5.50;;
12334;SDS011;6233;51.560;9.986;2023-04-25T00:59:21;9.57;;;5.73;;
12334;SDS011;6233;51.560;9.986;2023-04-25T01:02:23;9.47;;;5.83;;
12334;SDS011;6233;51.560;9.986;2023-04-25T01:05:25;12.17;;;6.23;;
12334;SDS011;6233;51.560;9.986;2023-04-25T01:08:26;11.37;;;5.87;;
12334;SDS011;6233;51.560;9.986;2023-04-25T01:11:28;12.40;;;6.47;;
12334;SDS011;6233;51.560;9.986;2023-04-25T01:14:30;11.33;;;6.93;;
12334;SDS011;6233;51.560;9.986;2023-04-25T01:17:33;13.47;;;6.73;;
12334;SDS011;6233;51.560;9.986;2023-04-25T01:20:35;13.90;;;7.57;;
12334;SDS011;6233;51.560;9.986;2023-04-25T01:23:39;11.50;;;7.00;;
12334;SDS011;6233;51.560;9.986;2023-04-25T01:26:42;10.77;;;6.80;;
12334;SDS011;6233;51.560;9.986;2023-04-25T01:29:50;9.97;;;6.73;;
12334;SDS011;6233;51.560;9.986;2023-04-25T01:32:53;9.27;;;6.40;;
12334;SDS011;6233;51.560;9.986;2023-04-25T01:35:57;14.00;;;7.90;;
12334;SDS011;6233;51.560;9.986;2023-04-25T01:38:59;11.30;;;7.33;;
12334;SDS011;6233;51.560;9.986;2023-04-25T01:42:01;14.30;;;7.73;;
12334;SDS011;6233;51.560;9.986;2023-04-25T01:45:03;12.40;;;7.73;;
12334;SDS011;6233;51.560;9.986;2023-04-25T01:48:07;13.83;;;7.57;;
12334;SDS011;6233;51.560;9.986;2023-04-25T01:51:12;12.77;;;7.87;;
12334;SDS011;6233;51.560;9.986;2023-04-25T01:54:14;12.87;;;7.87;;
12334;SDS011;6233;51.560;9.986;2023-04-25T01:57:16;13.53;;;8.03;;
12334;SDS011;6233;51.560;9.986;2023-04-25T02:00:17;14.33;;;7.90;;
12334;SDS011;6233;51.560;9.986;2023-04-25T02:03:19;11.80;;;8.27;;
12334;SDS011;6233;51.560;9.986;2023-04-25T02:06:21;12.67;;;7.87;;
12334;SDS011;6233;51.560;9.986;2023-04-25T02:09:23;12.77;;;7.87;;
12334;SDS011;6233;51.560;9.986;2023-04-25T02:12:25;10.30;;;7.50;;
12334;SDS011;6233;51.560;9.986;2023-04-25T02:15:28;15.87;;;8.53;;
12334;SDS011;6233;51.560;9.986;2023-04-25T02:18:30;12.53;;;8.77;;
12334;SDS011;6233;51.560;9.986;2023-04-25T02:21:32;15.17;;;8.57;;
12334;SDS011;6233;51.560;9.986;2023-04-25T02:24:36;15.30;;;7.80;;
12334;SDS011;6233;51.560;9.986;2023-04-25T02:27:38;14.47;;;7.83;;
12334;SDS011;6233;51.560;9.986;2023-04-25T02:30:40;13.17;;;7.80;;
12334;SDS011;6233;51.560;9.986;2023-04-25T02:33:42;14.27;;;8.57;;
12334;SDS011;6233;51.560;9.986;2023-04-25T02:36:44;14.37;;;9.00;;
12334;SDS011;6233;51.560;9.986;2023-04-25T02:39:46;16.67;;;7.90;;
12334;SDS011;6233;51.560;9.986;2023-04-25T02:42:47;14.53;;;8.27;;
12334;SDS011;6233;51.560;9.986;2023-04-25T02:45:49;13.17;;;8.00;;
12334;SDS011;6233;51.560;9.986;2023-04-25T02:48:51;14.93;;;8.07;;
12334;SDS011;6233;51.560;9.986;2023-04-25T02:51:53;13.23;;;8.10;;
12334;SDS011;6233;51.560;9.986;2023-04-25T02:54:54;15.80;;;8.17;;
12334;SDS011;6233;51.560;9.986;2023-04-25T02:57:56;16.60;;;8.53;;
12334;SDS011;6233;51.560;9.986;2023-04-25T03:00:58;16.37;;;9.10;;
12334;SDS011;6233;51.560;9.986;2023-04-25T03:03:59;16.83;;;8.13;;
12334;SDS011;6233;51.560;9.986;2023-04-25T03:07:01;11.67;;;7.07;;
12334;SDS011;6233;51.560;9.986;2023-04-25T03:10:03;13.90;;;8.30;;
12334;SDS011;6233;51.560;9.986;2023-04-25T03:13:06;14.80;;;8.40;;
12334;SDS011;6233;51.560;9.986;2023-04-25T03:16:08;15.07;;;7.40;;
12334;SDS011;6233;51.560;9.986;2023-04-25T03:19:10;12.23;;;8.13;;
12334;SDS011;6233;51.560;9.986;2023-04-25T03:22:12;15.33;;;8.40;;
12334;SDS011;6233;51.560;9.986;2023-04-25T03:25:13;17.67;;;8.87;;
12334;SDS011;6233;51.560;9.986;2023-04-25T03:28:15;15.43;;;9.07;;
12334;SDS011;6233;51.560;9.986;2023-04-25T03:31:17;12.27;;;8.00;;
12334;SDS011;6233;51.560;9.986;2023-04-25T03:34:18;12.97;;;7.73;;
12334;SDS011;6233;51.560;9.986;2023-04-25T03:37:22;13.40;;;8.33;;
12334;SDS011;6233;51.560;9.986;2023-04-25T03:40:24;13.07;;;8.27;;
12334;SDS011;6233;51.560;9.986;2023-04-25T03:43:26;16.27;;;8.07;;
12334;SDS011;6233;51.560;9.986;2023-04-25T03:46:27;14.53;;;8.03;;
12334;SDS011;6233;51.560;9.986;2023-04-25T03:49:29;12.67;;;7.70;;
12334;SDS011;6233;51.560;9.986;2023-04-25T03:52:31;13.57;;;7.57;;
12334;SDS011;6233;51.560;9.986;2023-04-25T03:55:33;13.43;;;8.83;;
12334;SDS011;6233;51.560;9.986;2023-04-25T03:58:34;11.13;;;8.10;;
12334;SDS011;6233;51.560;9.986;2023-04-25T04:01:36;13.27;;;8.30;;
12334;SDS011;6233;51.560;9.986;2023-04-25T04:04:38;12.73;;;8.03;;
12334;SDS011;6233;51.560;9.986;2023-04-25T04:07:40;16.17;;;9.40;;
12334;SDS011;6233;51.560;9.986;2023-04-25T04:10:43;14.07;;;7.90;;
12334;SDS011;6233;51.560;9.986;2023-04-25T04:13:45;17.27;;;10.03;;
12334;SDS011;6233;51.560;9.986;2023-04-25T04:16:47;12.83;;;8.90;;
12334;SDS011;6233;51.560;9.986;2023-04-25T04:19:48;19.37;;;10.47;;
12334;SDS011;6233;51.560;9.986;2023-04-25T04:22:51;13.73;;;8.30;;
12334;SDS011;6233;51.560;9.986;2023-04-25T04:25:52;16.87;;;8.90;;
12334;SDS011;6233;51.560;9.986;2023-04-25T04:28:55;17.37;;;11.30;;
12334;SDS011;6233;51.560;9.986;2023-04-25T04:31:57;15.03;;;9.30;;
12334;SDS011;6233;51.560;9.986;2023-04-25T04:34:59;11.67;;;8.60;;
12334;SDS011;6233;51.560;9.986;2023-04-25T04:38:00;14.50;;;9.07;;
12334;SDS011;6233;51.560;9.986;2023-04-25T04:41:02;12.90;;;8.37;;
12334;SDS011;6233;51.560;9.986;2023-04-25T04:44:04;13.80;;;9.23;;
12334;SDS011;6233;51.560;9.986;2023-04-25T04:47:09;15.77;;;9.50;;
12334;SDS011;6233;51.560;9.986;2023-04-25T04:50:11;15.10;;;10.03;;
12334;SDS011;6233;51.560;9.986;2023-04-25T04:53:13;14.90;;;9.63;;
12334;SDS011;6233;51.560;9.986;2023-04-25T04:56:15;16.93;;;10.33;;
12334;SDS011;6233;51.560;9.986;2023-04-25T04:59:17;14.93;;;9.70;;
12334;SDS011;6233;51.560;9.986;2023-04-25T05:02:19;14.17;;;9.43;;
12334;SDS011;6233;51.560;9.986;2023-04-25T05:05:21;14.20;;;9.53;;
12334;SDS011;6233;51.560;9.986;2023-04-25T05:08:23;13.87;;;9.37;;
12334;SDS011;6233;51.560;9.986;2023-04-25T05:11:24;13.37;;;8.63;;
12334;SDS011;6233;51.560;9.986;2023-04-25T05:14:26;16.77;;;13.00;;
12334;SDS011;6233;51.560;9.986;2023-04-25T05:17:28;19.57;;;12.47;;
12334;SDS011;6233;51.560;9.986;2023-04-25T05:20:30;20.40;;;11.97;;
12334;SDS011;6233;51.560;9.986;2023-04-25T05:23:32;19.50;;;13.03;;
12334;SDS011;6233;51.560;9.986;2023-04-25T05:26:34;18.07;;;12.97;;
12334;SDS011;6233;51.560;9.986;2023-04-25T05:29:36;19.83;;;12.23;;
12334;SDS011;6233;51.560;9.986;2023-04-25T05:32:37;17.87;;;12.80;;
12334;SDS011;6233;51.560;9.986;2023-04-25T05:35:39;14.93;;;10.27;;
12334;SDS011;6233;51.560;9.986;2023-04-25T05:38:41;12.40;;;9.17;;
12334;SDS011;6233;51.560;9.986;2023-04-25T05:41:44;16.30;;;10.00;;
12334;SDS011;6233;51.560;9.986;2023-04-25T05:44:46;11.13;;;7.80;;
12334;SDS011;6233;51.560;9.986;2023-04-25T05:47:47;12.97;;;8.77;;
12334;SDS011;6233;51.560;9.986;2023-04-25T05:50:49;12.37;;;6.30;;
12334;SDS011;6233;51.560;9.986;2023-04-25T05:53:54;14.60;;;5.83;;
12334;SDS011;6233;51.560;9.986;2023-04-25T05:56:56;12.90;;;6.90;;
12334;SDS011;6233;51.560;9.986;2023-04-25T05:59:58;12.70;;;5.93;;
12334;SDS011;6233;51.560;9.986;2023-04-25T06:03:00;13.90;;;6.07;;
12334;SDS011;6233;51.560;9.986;2023-04-25T06:06:02;16.87;;;6.03;;
12334;SDS011;6233;51.560;9.986;2023-04-25T06:09:04;19.40;;;6.50;;
12334;SDS011;6233;51.560;9.986;2023-04-25T06:12:06;11.27;;;5.33;;
12334;SDS011;6233;51.560;9.986;2023-04-25T06:15:08;14.30;;;6.57;;
12334;SDS011;6233;51.560;9.986;2023-04-25T06:18:27;11.97;;;5.90;;
12334;SDS011;6233;51.560;9.986;2023-04-25T06:21:29;10.97;;;5.70;;
12334;SDS011;6233;51.560;9.986;2023-04-25T06:24:32;15.07;;;6.70;;
12334;SDS011;6233;51.560;9.986;2023-04-25T06:27:34;14.00;;;5.50;;
12334;SDS011;6233;51.560;9.986;2023-04-25T06:30:36;10.60;;;5.77;;
12334;SDS011;6233;51.560;9.986;2023-04-25T06:33:37;13.07;;;5.83;;
12334;SDS011;6233;51.560;9.986;2023-04-25T06:40:22;11.73;;;5.63;;
12334;SDS011;6233;51.560;9.986;2023-04-25T06:43:27;14.23;;;6.07;;
12334;SDS011;6233;51.560;9.986;2023-04-25T06:46:29;16.17;;;6.10;;
12334;SDS011;6233;51.560;9.986;2023-04-25T06:49:31;15.73;;;5.50;;
12334;SDS011;6233;51.560;9.986;2023-04-25T06:52:32;13.90;;;5.47;;
12334;SDS011;6233;51.560;9.986;2023-04-25T06:55:34;13.93;;;6.03;;
12334;SDS011;6233;51.560;9.986;2023-04-25T06:58:36;11.63;;;6.13;;
12334;SDS011;6233;51.560;9.986;2023-04-25T07:01:37;11.50;;;5.97;;
12334;SDS011;6233;51.560;9.986;2023-04-25T07:04:39;13.10;;;5.57;;
12334;SDS011;6233;51.560;9.986;2023-04-25T07:07:41;12.30;;;5.43;;
12334;SDS011;6233;51.560;9.986;2023-04-25T07:10:43;12.37;;;5.00;;
12334;SDS011;6233;51.560;9.986;2023-04-25T07:13:44;8.70;;;4.43;;
12334;SDS011;6233;51.560;9.986;2023-04-25T07:16:46;10.10;;;4.47;;
12334;SDS011;6233;51.560;9.986;2023-04-25T07:19:48;12.00;;;4.57;;
12334;SDS011;6233;51.560;9.986;2023-04-25T07:22:50;15.93;;;4.97;;
12334;SDS011;6233;51.560;9.986;2023-04-25T07:25:52;11.07;;;4.23;;
12334;SDS011;6233;51.560;9.986;2023-04-25T07:28:53;16.73;;;5.40;;
12334;SDS011;6233;51.560;9.986;2023-04-25T07:31:58;13.30;;;5.23;;
12334;SDS011;6233;51.560;9.986;2023-04-25T07:35:00;9.97;;;4.47;;
12334;SDS011;6233;51.560;9.986;2023-04-25T07:38:03;10.67;;;4.00;;
12334;SDS011;6233;51.560;9.986;2023-04-25T07:41:04;10.33;;;4.47;;
12334;SDS011;6233;51.560;9.986;2023-04-25T07:44:06;10.60;;;4.43;;
12334;SDS011;6233;51.560;9.986;2023-04-25T07:47:08;13.57;;;4.00;;
12334;SDS011;6233;51.560;9.986;2023-04-25T07:50:11;16.13;;;4.47;;
12334;SDS011;6233;51.560;9.986;2023-04-25T07:53:13;11.10;;;4.33;;
12334;SDS011;6233;51.560;9.986;2023-04-25T07:56:14;14.50;;;4.83;;
12334;SDS011;6233;51.560;9.986;2023-04-25T07:59:16;10.93;;;4.67;;
12334;SDS011;6233;51.560;9.986;2023-04-25T08:02:18;9.47;;;4.30;;
12334;SDS011;6233;51.560;9.986;2023-04-25T08:05:19;17.33;;;4.60;;
12334;SDS011;6233;51.560;9.986;2023-04-25T08:08:23;13.13;;;4.33;;
12334;SDS011;6233;51.560;9.986;2023-04-25T08:11:25;10.90;;;4.00;;
12334;SDS011;6233;51.560;9.986;2023-04-25T08:14:26;7.87;;;3.63;;
12334;SDS011;6233;51.560;9.986;2023-04-25T08:17:30;9.20;;;4.60;;
12334;SDS011;6233;51.560;9.986;2023-04-25T08:20:31;7.60;;;4.20;;
12334;SDS011;6233;51.560;9.986;2023-04-25T08:23:33;11.53;;;4.43;;
12334;SDS011;6233;51.560;9.986;2023-04-25T08:26:35;7.23;;;4.27;;
12334;SDS011;6233;51.560;9.986;2023-04-25T08:29:38;8.53;;;4.30;;
12334;SDS011;6233;51.560;9.986;2023-04-25T08:32:40;10.57;;;3.83;;
12334;SDS011;6233;51.560;9.986;2023-04-25T08:35:42;10.10;;;4.37;;
12334;SDS011;6233;51.560;9.986;2023-04-25T08:38:45;11.80;;;4.30;;
12334;SDS011;6233;51.560;9.986;2023-04-25T08:41:47;6.93;;;4.00;;
12334;SDS011;6233;51.560;9.986;2023-04-25T08:44:49;8.17;;;4.10;;
12334;SDS011;6233;51.560;9.986;2023-04-25T08:47:51;6.07;;;3.30;;
12334;SDS011;6233;51.560;9.986;2023-04-25T08:50:56;12.80;;;3.80;;
12334;SDS011;6233;51.560;9.986;2023-04-25T08:54:01;7.93;;;3.57;;
12334;SDS011;6233;51.560;9.986;2023-04-25T08:57:31;8.87;;;3.53;;
12334;SDS011;6233;51.560;9.986;2023-04-25T09:00:33;8.63;;;3.20;;
12334;SDS011;6233;51.560;9.986;2023-04-25T09:03:35;7.77;;;3.47;;
12334;SDS011;6233;51.560;9.986;2023-04-25T09:06:38;7.03;;;3.50;;
12334;SDS011;6233;51.560;9.986;2023-04-25T09:09:39;8.40;;;3.87;;
12334;SDS011;6233;51.560;9.986;2023-04-25T09:12:41;8.13;;;3.57;;
12334;SDS011;6233;51.560;9.986;2023-04-25T09:15:47;8.77;;;3.60;;
12334;SDS011;6233;51.560;9.986;2023-04-25T09:18:49;6.63;;;3.10;;
12334;SDS011;6233;51.560;9.986;2023-04-25T09:25:52;6.00;;;2.43;;
12334;SDS011;6233;51.560;9.986;2023-04-25T09:29:04;7.53;;;2.60;;
12334;SDS011;6233;51.560;9.986;2023-04-25T09:32:11;5.80;;;3.17;;
12334;SDS011;6233;51.560;9.986;2023-04-25T09:35:24;5.03;;;3.03;;
12334;SDS011;6233;51.560;9.986;2023-04-25T09:38:27;6.23;;;3.37;;
12334;SDS011;6233;51.560;9.986;2023-04-25T09:41:41;8.57;;;3.90;;
12334;SDS011;6233;51.560;9.986;2023-04-25T09:44:46;6.17;;;4.07;;
12334;SDS011;6233;51.560;9.986;2023-04-25T09:51:16;6.67;;;3.47;;
12334;SDS011;6233;51.560;9.986;2023-04-25T09:54:18;6.80;;;3.30;;
12334;SDS011;6233;51.560;9.986;2023-04-25T09:57:20;8.07;;;3.20;;
12334;SDS011;6233;51.560;9.986;2023-04-25T10:00:23;6.37;;;3.20;;
12334;SDS011;6233;51.560;9.986;2023-04-25T10:03:25;6.33;;;2.63;;
12334;SDS011;6233;51.560;9.986;2023-04-25T10:06:30;5.13;;;2.57;;
12334;SDS011;6233;51.560;9.986;2023-04-25T10:09:36;6.17;;;2.90;;
12334;SDS011;6233;51.560;9.986;2023-04-25T10:12:40;8.53;;;3.23;;
12334;SDS011;6233;51.560;9.986;2023-04-25T10:15:44;4.17;;;2.33;;
12334;SDS011;6233;51.560;9.986;2023-04-25T10:18:46;6.47;;;2.50;;
12334;SDS011;6233;51.560;9.986;2023-04-25T10:25:05;6.57;;;2.43;;
12334;SDS011;6233;51.560;9.986;2023-04-25T10:28:09;8.03;;;2.30;;
12334;SDS011;6233;51.560;9.986;2023-04-25T10:31:11;6.10;;;2.40;;
12334;SDS011;6233;51.560;9.986;2023-04-25T10:34:18;4.60;;;2.33;;
12334;SDS011;6233;51.560;9.986;2023-04-25T10:37:24;8.57;;;2.53;;
12334;SDS011;6233;51.560;9.986;2023-04-25T10:40:26;5.83;;;2.30;;
12334;SDS011;6233;51.560;9.986;2023-04-25T10:46:33;4.73;;;2.20;;
12334;SDS011;6233;51.560;9.986;2023-04-25T10:49:37;8.27;;;2.40;;
12334;SDS011;6233;51.560;9.986;2023-04-25T10:52:43;6.53;;;2.90;;
12334;SDS011;6233;51.560;9.986;2023-04-25T10:55:49;6.23;;;2.23;;
12334;SDS011;6233;51.560;9.986;2023-04-25T10:58:51;3.87;;;2.47;;
12334;SDS011;6233;51.560;9.986;2023-04-25T11:01:54;5.27;;;2.50;;
12334;SDS011;6233;51.560;9.986;2023-04-25T11:04:57;4.17;;;2.30;;
12334;SDS011;6233;51.560;9.986;2023-04-25T11:08:00;4.73;;;2.60;;
12334;SDS011;6233;51.560;9.986;2023-04-25T11:11:24;6.63;;;2.87;;
12334;SDS011;6233;51.560;9.986;2023-04-25T11:14:26;3.73;;;2.10;;
12334;SDS011;6233;51.560;9.986;2023-04-25T11:17:28;4.37;;;2.23;;
12334;SDS011;6233;51.560;9.986;2023-04-25T11:20:31;5.77;;;2.73;;
12334;SDS011;6233;51.560;9.986;2023-04-25T11:23:32;5.57;;;2.80;;
12334;SDS011;6233;51.560;9.986;2023-04-25T11:26:34;8.37;;;2.83;;
12334;SDS011;6233;51.560;9.986;2023-04-25T11:29:38;4.17;;;2.60;;
12334;SDS011;6233;51.560;9.986;2023-04-25T11:32:40;6.33;;;2.70;;
12334;SDS011;6233;51.560;9.986;2023-04-25T11:35:43;5.10;;;2.20;;
12334;SDS011;6233;51.560;9.986;2023-04-25T11:38:45;4.67;;;2.40;;
12334;SDS011;6233;51.560;9.986;2023-04-25T11:41:47;5.00;;;2.50;;
12334;SDS011;6233;51.560;9.986;2023-04-25T11:44:49;5.87;;;2.43;;
12334;SDS011;6233;51.560;9.986;2023-04-25T11:47:50;6.93;;;2.40;;
12334;SDS011;6233;51.560;9.986;2023-04-25T11:50:53;5.27;;;3.13;;
12334;SDS011;6233;51.560;9.986;2023-04-25T11:53:56;5.57;;;2.67;;
12334;SDS011;6233;51.560;9.986;2023-04-25T11:56:58;4.67;;;2.70;;
12334;SDS011;6233;51.560;9.986;2023-04-25T12:00:07;5.37;;;2.50;;
12334;SDS011;6233;51.560;9.986;2023-04-25T12:03:09;4.43;;;2.83;;
12334;SDS011;6233;51.560;9.986;2023-04-25T12:06:11;3.37;;;2.70;;
12334;SDS011;6233;51.560;9.986;2023-04-25T12:09:20;5.33;;;2.87;;
12334;SDS011;6233;51.560;9.986;2023-04-25T12:12:31;6.17;;;2.70;;
12334;SDS011;6233;51.560;9.986;2023-04-25T12:15:33;4.37;;;2.90;;
12334;SDS011;6233;51.560;9.986;2023-04-25T12:18:35;3.57;;;2.33;;
12334;SDS011;6233;51.560;9.986;2023-04-25T12:21:37;5.83;;;2.50;;
12334;SDS011;6233;51.560;9.986;2023-04-25T12:24:57;5.43;;;2.70;;
12334;SDS011;6233;51.560;9.986;2023-04-25T12:28:12;5.30;;;2.20;;
12334;SDS011;6233;51.560;9.986;2023-04-25T12:31:15;4.63;;;2.63;;
12334;SDS011;6233;51.560;9.986;2023-04-25T12:34:18;5.87;;;2.53;;
12334;SDS011;6233;51.560;9.986;2023-04-25T12:37:23;4.20;;;2.27;;
12334;SDS011;6233;51.560;9.986;2023-04-25T12:40:24;3.10;;;2.50;;
12334;SDS011;6233;51.560;9.986;2023-04-25T12:43:26;4.27;;;2.53;;
12334;SDS011;6233;51.560;9.986;2023-04-25T12:46:28;2.80;;;2.23;;
12334;SDS011;6233;51.560;9.986;2023-04-25T12:49:29;3.23;;;2.23;;
12334;SDS011;6233;51.560;9.986;2023-04-25T12:52:31;3.93;;;2.60;;
12334;SDS011;6233;51.560;9.986;2023-04-25T12:55:33;3.20;;;2.10;;
12334;SDS011;6233;51.560;9.986;2023-04-25T12:58:35;5.80;;;2.60;;
12334;SDS011;6233;51.560;9.986;2023-04-25T13:01:37;4.90;;;2.33;;
12334;SDS011;6233;51.560;9.986;2023-04-25T13:04:38;4.93;;;2.80;;
12334;SDS011;6233;51.560;9.986;2023-04-25T13:07:40;4.67;;;2.10;;
12334;SDS011;6233;51.560;9.986;2023-04-25T13:10:42;3.17;;;2.00;;
12334;SDS011;6233;51.560;9.986;2023-04-25T13:13:44;2.70;;;2.00;;
12334;SDS011;6233;51.560;9.986;2023-04-25T13:16:46;3.57;;;2.10;;
12334;SDS011;6233;51.560;9.986;2023-04-25T13:19:48;2.70;;;2.10;;
12334;SDS011;6233;51.560;9.986;2023-04-25T13:26:47;3.17;;;2.20;;
12334;SDS011;6233;51.560;9.986;2023-04-25T13:29:49;4.67;;;2.00;;
12334;SDS011;6233;51.560;9.986;2023-04-25T13:32:51;3.63;;;1.70;;
12334;SDS011;6233;51.560;9.986;2023-04-25T13:35:54;4.57;;;1.90;;
12334;SDS011;6233;51.560;9.986;2023-04-25T13:38:57;2.37;;;1.70;;
12334;SDS011;6233;51.560;9.986;2023-04-25T13:41:59;2.30;;;1.73;;
12334;SDS011;6233;51.560;9.986;2023-04-25T13:45:01;3.40;;;1.83;;
12334;SDS011;6233;51.560;9.986;2023-04-25T13:48:04;2.83;;;1.90;;
12334;SDS011;6233;51.560;9.986;2023-04-25T13:51:05;2.60;;;1.90;;
12334;SDS011;6233;51.560;9.986;2023-04-25T13:54:07;4.47;;;2.10;;
12334;SDS011;6233;51.560;9.986;2023-04-25T13:57:09;4.27;;;2.13;;
12334;SDS011;6233;51.560;9.986;2023-04-25T14:00:12;4.03;;;2.10;;
12334;SDS011;6233;51.560;9.986;2023-04-25T14:03:14;3.43;;;2.10;;
12334;SDS011;6233;51.560;9.986;2023-04-25T14:06:17;4.00;;;1.87;;
12334;SDS011;6233;51.560;9.986;2023-04-25T14:09:23;4.83;;;2.50;;
12334;SDS011;6233;51.560;9.986;2023-04-25T14:12:26;5.03;;;2.27;;
12334;SDS011;6233;51.560;9.986;2023-04-25T14:15:29;3.37;;;1.93;;
12334;SDS011;6233;51.560;9.986;2023-04-25T14:18:34;3.90;;;2.57;;
12334;SDS011;6233;51.560;9.986;2023-04-25T14:21:35;2.57;;;2.00;;
12334;SDS011;6233;51.560;9.986;2023-04-25T14:24:37;3.50;;;1.97;;
12334;SDS011;6233;51.560;9.986;2023-04-25T14:27:39;3.53;;;2.20;;
12334;SDS011;6233;51.560;9.986;2023-04-25T14:30:41;4.17;;;2.03;;
12334;SDS011;6233;51.560;9.986;2023-04-25T14:33:42;2.47;;;1.70;;
12334;SDS011;6233;51.560;9.986;2023-04-25T14:36:44;2.67;;;1.83;;
12334;SDS011;6233;51.560;9.986;2023-04-25T14:39:46;4.57;;;1.77;;
12334;SDS011;6233;51.560;9.986;2023-04-25T14:42:48;3.53;;;1.67;;
12334;SDS011;6233;51.560;9.986;2023-04-25T14:45:50;3.07;;;1.90;;
12334;SDS011;6233;51.560;9.986;2023-04-25T14:48:51;3.10;;;1.70;;
12334;SDS011;6233;51.560;9.986;2023-04-25T14:51:53;3.87;;;1.80;;
12334;SDS011;6233;51.560;9.986;2023-04-25T14:54:55;2.67;;;1.80;;
12334;SDS011;6233;51.560;9.986;2023-04-25T14:57:57;3.00;;;1.50;;
12334;SDS011;6233;51.560;9.986;2023-04-25T15:00:59;2.00;;;1.70;;
12334;SDS011;6233;51.560;9.986;2023-04-25T15:04:02;1.83;;;1.73;;
12334;SDS011;6233;51.560;9.986;2023-04-25T15:07:04;3.63;;;2.20;;
12334;SDS011;6233;51.560;9.986;2023-04-25T15:10:07;2.47;;;1.67;;
12334;SDS011;6233;51.560;9.986;2023-04-25T15:13:14;2.90;;;1.90;;
12334;SDS011;6233;51.560;9.986;2023-04-25T15:16:16;2.93;;;1.60;;
12334;SDS011;6233;51.560;9.986;2023-04-25T15:19:18;4.80;;;1.83;;
12334;SDS011;6233;51.560;9.986;2023-04-25T15:22:20;3.93;;;2.07;;
12334;SDS011;6233;51.560;9.986;2023-04-25T15:25:22;3.47;;;1.90;;
12334;SDS011;6233;51.560;9.986;2023-04-25T15:28:23;2.63;;;1.80;;
12334;SDS011;6233;51.560;9.986;2023-04-25T15:31:25;2.67;;;2.23;;
12334;SDS011;6233;51.560;9.986;2023-04-25T15:34:27;4.83;;;2.07;;
12334;SDS011;6233;51.560;9.986;2023-04-25T15:37:29;4.27;;;2.50;;
12334;SDS011;6233;51.560;9.986;2023-04-25T15:40:31;5.63;;;2.80;;
12334;SDS011;6233;51.560;9.986;2023-04-25T15:43:33;3.57;;;1.83;;
12334;SDS011;6233;51.560;9.986;2023-04-25T15:46:38;3.40;;;1.77;;
12334;SDS011;6233;51.560;9.986;2023-04-25T15:49:40;2.67;;;1.83;;
12334;SDS011;6233;51.560;9.986;2023-04-25T15:52:42;4.43;;;2.37;;
12334;SDS011;6233;51.560;9.986;2023-04-25T15:55:44;5.10;;;2.00;;
12334;SDS011;6233;51.560;9.986;2023-04-25T15:58:45;2.40;;;1.70;;
12334;SDS011;6233;51.560;9.986;2023-04-25T16:01:47;5.30;;;2.40;;
12334;SDS011;6233;51.560;9.986;2023-04-25T16:04:49;3.83;;;2.53;;
12334;SDS011;6233;51.560;9.986;2023-04-25T16:07:51;1.70;;;1.60;;
12334;SDS011;6233;51.560;9.986;2023-04-25T16:10:54;4.37;;;2.30;;
12334;SDS011;6233;51.560;9.986;2023-04-25T16:13:56;3.27;;;2.10;;
12334;SDS011;6233;51.560;9.986;2023-04-25T16:16:58;5.10;;;2.37;;
12334;SDS011;6233;51.560;9.986;2023-04-25T16:20:00;2.60;;;2.20;;
12334;SDS011;6233;51.560;9.986;2023-04-25T16:23:10;7.00;;;4.30;;
12334;SDS011;6233;51.560;9.986;2023-04-25T16:26:12;3.30;;;2.30;;
12334;SDS011;6233;51.560;9.986;2023-04-25T16:29:14;3.97;;;2.57;;
12334;SDS011;6233;51.560;9.986;2023-04-25T16:32:17;3.27;;;1.87;;
12334;SDS011;6233;51.560;9.986;2023-04-25T16:35:19;2.63;;;1.70;;
12334;SDS011;6233;51.560;9.986;2023-04-25T16:38:21;4.50;;;2.20;;
12334;SDS011;6233;51.560;9.986;2023-04-25T16:41:23;3.47;;;2.30;;
12334;SDS011;6233;51.560;9.986;2023-04-25T16:44:25;5.57;;;2.43;;
12334;SDS011;6233;51.560;9.986;2023-04-25T16:47:27;1.80;;;1.43;;
12334;SDS011;6233;51.560;9.986;2023-04-25T16:50:28;4.43;;;1.80;;
12334;SDS011;6233;51.560;9.986;2023-04-25T16:53:30;2.53;;;1.50;;
12334;SDS011;6233;51.560;9.986;2023-04-25T16:56:32;2.13;;;1.50;;
12334;SDS011;6233;51.560;9.986;2023-04-25T16:59:34;2.13;;;1.47;;
12334;SDS011;6233;51.560;9.986;2023-04-25T17:02:36;1.80;;;1.20;;
12334;SDS011;6233;51.560;9.986;2023-04-25T17:05:38;2.07;;;1.40;;
12334;SDS011;6233;51.560;9.986;2023-04-25T17:08:40;4.87;;;1.90;;
12334;SDS011;6233;51.560;9.986;2023-04-25T17:11:41;2.30;;;1.90;;
12334;SDS011;6233;51.560;9.986;2023-04-25T17:14:43;1.73;;;1.40;;
12334;SDS011;6233;51.560;9.986;2023-04-25T17:17:46;1.83;;;1.73;;
12334;SDS011;6233;51.560;9.986;2023-04-25T17:20:48;2.47;;;1.70;;
12334;SDS011;6233;51.560;9.986;2023-04-25T17:23:50;2.60;;;1.37;;
12334;SDS011;6233;51.560;9.986;2023-04-25T17:26:53;1.77;;;1.67;;
12334;SDS011;6233;51.560;9.986;2023-04-25T17:29:56;2.80;;;1.77;;
12334;SDS011;6233;51.560;9.986;2023-04-25T17:32:58;3.97;;;2.00;;
12334;SDS011;6233;51.560;9.986;2023-04-25T17:35:59;1.93;;;1.40;;
12334;SDS011;6233;51.560;9.986;2023-04-25T17:39:01;2.60;;;2.00;;
12334;SDS011;6233;51.560;9.986;2023-04-25T17:42:06;2.63;;;1.83;;
12334;SDS011;6233;51.560;9.986;2023-04-25T17:45:08;2.23;;;1.67;;
12334;SDS011;6233;51.560;9.986;2023-04-25T17:48:12;3.77;;;1.70;;
12334;SDS011;6233;51.560;9.986;2023-04-25T17:51:14;2.10;;;1.63;;
12334;SDS011;6233;51.560;9.986;2023-04-25T17:54:16;1.63;;;1.53;;
12334;SDS011;6233;51.560;9.986;2023-04-25T17:57:18;3.00;;;1.90;;
12334;SDS011;6233;51.560;9.986;2023-04-25T18:00:22;4.37;;;2.00;;
12334;SDS011;6233;51.560;9.986;2023-04-25T18:03:24;2.13;;;1.77;;
12334;SDS011;6233;51.560;9.986;2023-04-25T18:06:27;3.33;;;2.50;;
12334;SDS011;6233;51.560;9.986;2023-04-25T18:09:29;3.50;;;2.27;;
12334;SDS011;6233;51.560;9.986;2023-04-25T18:12:32;4.47;;;2.17;;
12334;SDS011;6233;51.560;9.986;2023-04-25T18:15:34;2.40;;;2.20;;
12334;SDS011;6233;51.560;9.986;2023-04-25T18:18:36;3.60;;;2.10;;
12334;SDS011;6233;51.560;9.986;2023-04-25T18:21:38;4.20;;;2.47;;
12334;SDS011;6233;51.560;9.986;2023-04-25T18:24:40;3.43;;;2.47;;
12334;SDS011;6233;51.560;9.986;2023-04-25T18:27:42;3.20;;;2.10;;
12334;SDS011;6233;51.560;9.986;2023-04-25T18:30:43;4.93;;;2.33;;
12334;SDS011;6233;51.560;9.986;2023-04-25T18:33:47;2.80;;;2.10;;
12334;SDS011;6233;51.560;9.986;2023-04-25T18:36:49;4.10;;;2.07;;
12334;SDS011;6233;51.560;9.986;2023-04-25T18:39:52;2.40;;;2.20;;
12334;SDS011;6233;51.560;9.986;2023-04-25T18:42:54;4.37;;;2.40;;
12334;SDS011;6233;51.560;9.986;2023-04-25T18:45:56;2.10;;;1.70;;
12334;SDS011;6233;51.560;9.986;2023-04-25T18:48:58;3.83;;;3.10;;
12334;SDS011;6233;51.560;9.986;2023-04-25T18:52:01;5.77;;;2.80;;